createdAt,value
2023-04-27T00:00:38.710Z,5.55
2023-04-27T00:05:40.449Z,7.38
2023-04-27T00:10:42.177Z,6.53
2023-04-27T00:15:46.424Z,6.72
2023-04-27T00:20:48.529Z,6.00
2023-04-27T00:25:53.759Z,6.93
2023-04-27T00:30:55.538Z,7.65
2023-04-27T00:36:01.725Z,7.50
2023-04-27T00:41:04.701Z,8.18
2023-04-27T00:46:06.563Z,8.15
2023-04-27T00:51:08.562Z,7.82
2023-04-27T00:56:10.295Z,8.00
2023-04-27T01:01:12.896Z,7.88
2023-04-27T01:06:14.675Z,7.57
2023-04-27T01:11:18.433Z,6.90
2023-04-27T01:16:20.097Z,5.88
2023-04-27T01:21:22.033Z,6.07
2023-04-27T01:26:23.712Z,5.78
2023-04-27T01:31:25.689Z,5.75
2023-04-27T01:36:28.789Z,5.63
2023-04-27T01:41:31.464Z,5.97
2023-04-27T01:46:33.357Z,5.65
2023-04-27T01:51:35.118Z,5.53
2023-04-27T01:56:36.796Z,6.05
2023-04-27T02:01:38.528Z,6.20
2023-04-27T02:06:41.295Z,6.43
2023-04-27T02:11:43.185Z,6.13
2023-04-27T02:16:45.009Z,5.72
2023-04-27T02:21:47.215Z,5.90
2023-04-27T02:26:48.948Z,6.43
2023-04-27T02:31:50.984Z,5.53
2023-04-27T02:36:52.805Z,6.57
2023-04-27T02:41:54.477Z,6.57
2023-04-27T02:46:56.588Z,6.32
2023-04-27T02:51:58.330Z,6.68
2023-04-27T02:57:00.324Z,6.22
2023-04-27T03:02:02.002Z,6.20
2023-04-27T03:07:04.407Z,6.35
2023-04-27T03:12:06.187Z,6.63
2023-04-27T03:17:07.917Z,6.38
2023-04-27T03:22:09.578Z,6.25
2023-04-27T03:27:11.594Z,6.35
2023-04-27T03:32:15.591Z,6.03
2023-04-27T03:37:17.320Z,6.03
2023-04-27T03:42:20.246Z,6.47
2023-04-27T03:47:22.005Z,5.80
2023-04-27T03:52:23.785Z,6.47
2023-04-27T03:57:25.744Z,6.90
2023-04-27T04:02:29.432Z,7.28
2023-04-27T04:07:32.274Z,8.43
2023-04-27T04:12:34.040Z,7.80
2023-04-27T04:17:35.981Z,6.97
2023-04-27T04:22:38.218Z,7.43
2023-04-27T04:27:41.294Z,7.63
2023-04-27T04:32:42.980Z,6.78
2023-04-27T04:37:46.253Z,7.20
2023-04-27T04:42:48.516Z,6.80
2023-04-27T04:47:50.132Z,7.00
2023-04-27T04:52:52.037Z,7.53
2023-04-27T04:57:53.702Z,7.28
2023-04-27T05:02:55.999Z,7.30
2023-04-27T05:07:57.749Z,6.97
2023-04-27T05:12:59.601Z,7.43
2023-04-27T05:18:01.456Z,6.22
2023-04-27T05:23:03.220Z,5.55
2023-04-27T05:28:04.976Z,6.03
2023-04-27T05:33:07.071Z,5.63
2023-04-27T05:38:08.836Z,5.93
2023-04-27T05:43:10.608Z,4.55
2023-04-27T05:48:12.248Z,4.28
2023-04-27T05:53:13.930Z,4.85
2023-04-27T05:58:16.837Z,4.75
2023-04-27T06:03:18.579Z,4.35
2023-04-27T06:08:20.415Z,3.65
2023-04-27T06:13:22.358Z,3.88
2023-04-27T06:18:23.992Z,4.03
2023-04-27T06:23:25.785Z,3.50
2023-04-27T06:28:27.491Z,3.28
2023-04-27T06:33:29.151Z,3.30
2023-04-27T06:38:31.032Z,3.65
2023-04-27T06:43:32.756Z,3.30
2023-04-27T06:48:35.104Z,3.58
2023-04-27T06:53:39.809Z,3.40
2023-04-27T06:58:41.472Z,3.25
2023-04-27T07:03:43.311Z,2.92
2023-04-27T07:08:45.283Z,2.88
2023-04-27T07:13:47.352Z,3.63
2023-04-27T07:18:49.224Z,3.25
2023-04-27T07:23:50.891Z,3.15
2023-04-27T07:28:52.649Z,3.20
2023-04-27T07:33:55.061Z,3.53
2023-04-27T07:38:58.699Z,3.38
2023-04-27T07:44:00.313Z,4.15
2023-04-27T07:49:02.481Z,3.28
2023-04-27T07:54:04.251Z,3.83
2023-04-27T07:59:06.028Z,3.53
2023-04-27T08:04:07.978Z,3.15
2023-04-27T08:09:09.843Z,3.35
2023-04-27T08:14:13.763Z,4.53
2023-04-27T08:19:16.482Z,4.47
2023-04-27T08:24:18.192Z,3.92
2023-04-27T08:29:27.693Z,4.25
2023-04-27T08:34:31.190Z,3.15
2023-04-27T08:39:32.845Z,3.30
2023-04-27T08:44:40.093Z,3.50
2023-04-27T08:49:41.860Z,3.70
2023-04-27T08:54:43.965Z,3.20
2023-04-27T08:59:59.314Z,3.67
2023-04-27T09:05:01.222Z,3.40
2023-04-27T09:10:04.643Z,3.50
2023-04-27T09:15:08.755Z,3.65
2023-04-27T09:20:13.102Z,3.72
2023-04-27T09:25:33.731Z,3.97
2023-04-27T09:30:40.345Z,4.00
2023-04-27T09:35:42.145Z,3.60
2023-04-27T09:40:43.906Z,4.20
2023-04-27T09:45:47.134Z,4.28
2023-04-27T09:50:50.555Z,4.30
2023-04-27T09:56:33.003Z,4.78
2023-04-27T10:01:47.064Z,4.70
2023-04-27T10:07:01.897Z,4.60
2023-04-27T10:12:33.019Z,4.38
2023-04-27T10:17:36.880Z,5.30
2023-04-27T10:22:40.882Z,5.05
2023-04-27T10:27:42.710Z,4.80
2023-04-27T10:32:58.883Z,4.82
2023-04-27T10:38:14.873Z,5.20
2023-04-27T10:43:18.034Z,4.63
2023-04-27T10:48:20.248Z,4.93
2023-04-27T10:53:22.008Z,5.40
2023-04-27T10:58:25.500Z,5.38
2023-04-27T11:03:31.710Z,6.00
2023-04-27T11:08:36.877Z,5.45
2023-04-27T11:13:38.636Z,5.22
2023-04-27T11:18:40.219Z,5.45
2023-04-27T11:23:42.864Z,5.47
2023-04-27T11:29:01.822Z,4.90
2023-04-27T11:34:04.062Z,5.65
2023-04-27T11:39:06.529Z,4.82
2023-04-27T11:44:10.001Z,5.72
2023-04-27T11:49:16.101Z,5.78
2023-04-27T11:54:18.028Z,5.43
2023-04-27T11:59:21.643Z,5.57
2023-04-27T12:04:23.701Z,6.13
2023-04-27T12:09:25.732Z,5.28
2023-04-27T12:14:27.480Z,5.78
2023-04-27T12:19:30.451Z,6.53
2023-04-27T12:24:32.451Z,7.13
2023-04-27T12:29:34.128Z,6.85
2023-04-27T12:34:38.278Z,6.20
2023-04-27T12:39:40.057Z,5.85
2023-04-27T12:44:41.710Z,6.07
2023-04-27T12:49:43.652Z,6.28
2023-04-27T12:54:47.203Z,6.43
2023-04-27T12:59:48.808Z,6.25
2023-04-27T13:04:51.294Z,6.43
2023-04-27T13:09:54.085Z,6.53
2023-04-27T13:14:56.345Z,5.93
2023-04-27T13:19:58.921Z,4.97
2023-04-27T13:25:00.975Z,5.95
2023-04-27T13:30:03.222Z,5.90
2023-04-27T13:35:05.442Z,6.38
2023-04-27T13:40:10.901Z,5.70
2023-04-27T13:45:12.599Z,5.63
2023-04-27T13:50:14.943Z,6.38
2023-04-27T13:55:17.240Z,7.30
2023-04-27T14:00:19.785Z,5.85
2023-04-27T14:05:21.468Z,6.43
2023-04-27T14:10:23.158Z,6.55
2023-04-27T14:15:24.863Z,7.93
2023-04-27T14:20:28.857Z,5.72
2023-04-27T14:25:33.202Z,7.57
2023-04-27T14:30:35.560Z,6.00
2023-04-27T14:35:37.277Z,6.15
2023-04-27T14:40:39.000Z,7.50
2023-04-27T14:45:50.659Z,11.45
2023-04-27T14:50:54.263Z,6.40
2023-04-27T14:55:55.877Z,7.47
2023-04-27T15:00:58.610Z,9.00
2023-04-27T15:06:01.426Z,7.70
2023-04-27T15:11:04.444Z,6.05
2023-04-27T15:16:07.288Z,6.50
2023-04-27T15:21:09.076Z,6.35
2023-04-27T15:26:10.730Z,6.80
2023-04-27T15:31:14.202Z,6.25
2023-04-27T15:36:18.010Z,6.72
2023-04-27T15:41:19.702Z,6.43
2023-04-27T15:46:21.425Z,5.15
2023-04-27T15:51:23.152Z,5.78
2023-04-27T15:56:25.594Z,5.35
2023-04-27T16:01:27.704Z,5.95
2023-04-27T16:06:32.140Z,6.50
2023-04-27T16:11:34.124Z,6.00
2023-04-27T16:16:36.520Z,5.95
2023-04-27T16:21:38.495Z,5.18
2023-04-27T16:26:40.476Z,5.57
2023-04-27T16:31:50.398Z,4.90
2023-04-27T16:41:54.199Z,5.18
2023-04-27T16:46:55.849Z,5.15
2023-04-27T16:51:57.550Z,8.10
2023-04-27T16:56:59.540Z,5.03
2023-04-27T17:02:12.589Z,4.63
2023-04-27T17:07:23.041Z,5.40
2023-04-27T17:12:26.107Z,6.47
2023-04-27T17:17:28.016Z,5.18
2023-04-27T17:22:30.121Z,4.40
2023-04-27T17:27:31.744Z,4.50
2023-04-27T17:32:33.474Z,5.22
2023-04-27T17:37:35.227Z,5.65
2023-04-27T17:42:37.197Z,5.60
2023-04-27T17:47:39.021Z,5.97
2023-04-27T17:52:40.859Z,6.38
2023-04-27T17:57:42.602Z,7.95
2023-04-27T18:02:47.296Z,8.57
2023-04-27T18:07:50.242Z,6.03
2023-04-27T18:12:52.387Z,6.63
2023-04-27T18:18:02.085Z,6.28
2023-04-27T18:23:03.818Z,5.68
2023-04-27T18:28:05.919Z,6.43
2023-04-27T18:33:07.879Z,5.43
2023-04-27T18:38:09.620Z,5.85
2023-04-27T18:43:11.278Z,5.80
2023-04-27T18:48:12.916Z,5.65
2023-04-27T18:53:14.646Z,5.22
2023-04-27T18:58:17.281Z,5.57
2023-04-27T19:03:19.330Z,5.35
2023-04-27T19:08:21.239Z,5.28
2023-04-27T19:13:25.171Z,5.38
2023-04-27T19:18:27.105Z,5.85
2023-04-27T19:23:28.850Z,5.78
2023-04-27T19:28:30.547Z,5.53
2023-04-27T19:33:32.347Z,6.18
2023-04-27T19:38:34.358Z,6.15
2023-04-27T19:43:36.393Z,5.40
2023-04-27T19:48:38.096Z,4.22
2023-04-27T19:53:39.789Z,4.38
2023-04-27T19:58:41.702Z,3.70
2023-04-27T20:03:43.527Z,4.10
2023-04-27T20:08:45.944Z,4.22
2023-04-27T20:13:47.720Z,3.95
2023-04-27T20:18:49.714Z,4.35
2023-04-27T20:23:51.462Z,4.18
2023-04-27T20:28:53.630Z,4.03
2023-04-27T20:33:55.305Z,4.40
2023-04-27T20:38:57.715Z,4.63
2023-04-27T20:44:00.414Z,4.35
2023-04-27T20:49:03.230Z,5.97
2023-04-27T20:54:05.393Z,4.97
2023-04-27T20:59:07.984Z,5.93
2023-04-27T21:04:11.883Z,6.55
2023-04-27T21:09:13.702Z,7.78
2023-04-27T21:14:17.538Z,8.10
2023-04-27T21:19:19.467Z,7.15
2023-04-27T21:24:21.324Z,6.57
2023-04-27T21:29:25.207Z,6.78
2023-04-27T21:34:26.852Z,5.45
2023-04-27T21:39:28.481Z,5.43
2023-04-27T21:44:30.197Z,4.88
2023-04-27T21:49:31.861Z,5.18
2023-04-27T21:54:33.465Z,5.60
2023-04-27T21:59:35.123Z,5.03
2023-04-27T22:04:38.468Z,4.88
2023-04-27T22:09:41.465Z,5.03
2023-04-27T22:14:43.327Z,5.05
2023-04-27T22:19:44.894Z,5.20
2023-04-27T22:24:49.536Z,5.38
2023-04-27T22:29:51.769Z,5.85
2023-04-27T22:34:53.675Z,5.15
2023-04-27T22:39:56.054Z,5.22
2023-04-27T22:44:57.749Z,5.75
2023-04-27T22:50:01.446Z,5.40
2023-04-27T22:55:03.892Z,5.20
2023-04-27T23:00:06.368Z,5.68
2023-04-27T23:05:08.868Z,6.00
2023-04-27T23:10:10.870Z,5.88
2023-04-27T23:15:12.678Z,5.80
2023-04-27T23:20:27.502Z,5.93
2023-04-27T23:25:32.720Z,5.78
2023-04-27T23:30:34.411Z,5.47
2023-04-27T23:35:36.110Z,5.97
2023-04-27T23:40:37.723Z,5.50
2023-04-27T23:45:39.323Z,5.55
2023-04-27T23:50:40.942Z,5.10
2023-04-27T23:55:42.744Z,5.30
